sensor_id;sensor_type;location;lat;lon;timestamp;P1;durP1;ratioP1;P2;durP2;ratioP2
5117;SDS011;2578;51.622;7.046;2023-06-26T00:02:12;3.70;;;3.00;;
5117;SDS011;2578;51.622;7.046;2023-06-26T00:04:37;3.80;;;3.10;;
5117;SDS011;2578;51.622;7.046;2023-06-26T00:07:04;4.13;;;3.73;;
5117;SDS011;2578;51.622;7.046;2023-06-26T00:09:29;4.07;;;3.67;;
5117;SDS011;2578;51.622;7.046;2023-06-26T00:11:55;4.20;;;3.60;;
5117;SDS011;2578;51.622;7.046;2023-06-26T00:14:21;3.90;;;3.50;;
5117;SDS011;2578;51.622;7.046;2023-06-26T00:16:47;4.43;;;4.03;;
5117;SDS011;2578;51.622;7.046;2023-06-26T00:19:14;4.67;;;4.27;;
5117;SDS011;2578;51.622;7.046;2023-06-26T00:21:40;5.23;;;4.73;;
5117;SDS011;2578;51.622;7.046;2023-06-26T00:24:11;4.70;;;4.30;;
5117;SDS011;2578;51.622;7.046;2023-06-26T00:26:37;5.73;;;5.23;;
5117;SDS011;2578;51.622;7.046;2023-06-26T00:29:03;5.10;;;4.70;;
5117;SDS011;2578;51.622;7.046;2023-06-26T00:31:32;5.90;;;5.40;;
5117;SDS011;2578;51.622;7.046;2023-06-26T00:33:57;6.10;;;5.60;;
5117;SDS011;2578;51.622;7.046;2023-06-26T00:36:23;6.03;;;5.53;;
5117;SDS011;2578;51.622;7.046;2023-06-26T00:38:51;6.50;;;6.00;;
5117;SDS011;2578;51.622;7.046;2023-06-26T00:41:17;6.00;;;5.50;;
5117;SDS011;2578;51.622;7.046;2023-06-26T00:43:44;6.17;;;5.70;;
5117;SDS011;2578;51.622;7.046;2023-06-26T00:46:10;5.93;;;5.50;;
5117;SDS011;2578;51.622;7.046;2023-06-26T00:48:38;6.10;;;5.60;;
5117;SDS011;2578;51.622;7.046;2023-06-26T00:51:06;5.70;;;5.30;;
5117;SDS011;2578;51.622;7.046;2023-06-26T00:53:32;5.90;;;5.40;;
5117;SDS011;2578;51.622;7.046;2023-06-26T00:55:58;5.87;;;5.40;;
5117;SDS011;2578;51.622;7.046;2023-06-26T00:58:25;5.93;;;5.47;;
5117;SDS011;2578;51.622;7.046;2023-06-26T01:00:51;6.10;;;5.60;;
5117;SDS011;2578;51.622;7.046;2023-06-26T01:03:17;6.20;;;5.70;;
5117;SDS011;2578;51.622;7.046;2023-06-26T01:05:44;5.60;;;5.20;;
5117;SDS011;2578;51.622;7.046;2023-06-26T01:08:14;6.73;;;6.23;;
5117;SDS011;2578;51.622;7.046;2023-06-26T01:10:41;6.40;;;5.90;;
5117;SDS011;2578;51.622;7.046;2023-06-26T01:13:07;6.83;;;6.33;;
5117;SDS011;2578;51.622;7.046;2023-06-26T01:15:34;8.80;;;8.10;;
5117;SDS011;2578;51.622;7.046;2023-06-26T01:18:00;11.73;;;7.80;;
5117;SDS011;2578;51.622;7.046;2023-06-26T01:20:31;7.47;;;6.97;;
5117;SDS011;2578;51.622;7.046;2023-06-26T01:28:29;9.17;;;8.53;;
5117;SDS011;2578;51.622;7.046;2023-06-26T01:30:56;9.20;;;8.50;;
5117;SDS011;2578;51.622;7.046;2023-06-26T01:33:23;8.70;;;8.10;;
5117;SDS011;2578;51.622;7.046;2023-06-26T01:35:49;9.60;;;8.80;;
5117;SDS011;2578;51.622;7.046;2023-06-26T01:38:16;9.47;;;8.87;;
5117;SDS011;2578;51.622;7.046;2023-06-26T01:40:42;9.70;;;9.10;;
5117;SDS011;2578;51.622;7.046;2023-06-26T01:43:11;9.60;;;9.00;;
5117;SDS011;2578;51.622;7.046;2023-06-26T01:45:43;11.17;;;10.03;;
5117;SDS011;2578;51.622;7.046;2023-06-26T01:48:13;10.77;;;10.07;;
5117;SDS011;2578;51.622;7.046;2023-06-26T01:50:45;9.90;;;9.30;;
5117;SDS011;2578;51.622;7.046;2023-06-26T01:53:12;10.00;;;9.40;;
5117;SDS011;2578;51.622;7.046;2023-06-26T01:58:32;10.57;;;9.87;;
5117;SDS011;2578;51.622;7.046;2023-06-26T02:01:00;10.00;;;9.30;;
5117;SDS011;2578;51.622;7.046;2023-06-26T02:03:26;10.23;;;9.63;;
5117;SDS011;2578;51.622;7.046;2023-06-26T02:05:51;9.43;;;8.83;;
5117;SDS011;2578;51.622;7.046;2023-06-26T02:08:17;9.83;;;9.13;;
5117;SDS011;2578;51.622;7.046;2023-06-26T02:10:43;28.30;;;22.50;;
5117;SDS011;2578;51.622;7.046;2023-06-26T02:13:09;8.80;;;8.20;;
5117;SDS011;2578;51.622;7.046;2023-06-26T02:15:35;9.10;;;8.50;;
5117;SDS011;2578;51.622;7.046;2023-06-26T02:18:01;9.90;;;9.23;;
5117;SDS011;2578;51.622;7.046;2023-06-26T02:20:26;9.93;;;9.23;;
5117;SDS011;2578;51.622;7.046;2023-06-26T02:22:52;8.80;;;8.20;;
5117;SDS011;2578;51.622;7.046;2023-06-26T02:25:17;8.80;;;8.20;;
5117;SDS011;2578;51.622;7.046;2023-06-26T02:27:43;10.43;;;9.63;;
5117;SDS011;2578;51.622;7.046;2023-06-26T02:30:09;9.83;;;9.13;;
5117;SDS011;2578;51.622;7.046;2023-06-26T02:32:35;9.13;;;8.53;;
5117;SDS011;2578;51.622;7.046;2023-06-26T02:35:01;10.30;;;9.40;;
5117;SDS011;2578;51.622;7.046;2023-06-26T02:37:26;9.30;;;8.70;;
5117;SDS011;2578;51.622;7.046;2023-06-26T02:39:52;9.30;;;8.70;;
5117;SDS011;2578;51.622;7.046;2023-06-26T02:42:18;10.37;;;9.70;;
5117;SDS011;2578;51.622;7.046;2023-06-26T02:44:43;11.47;;;10.67;;
5117;SDS011;2578;51.622;7.046;2023-06-26T02:47:09;9.90;;;9.30;;
5117;SDS011;2578;51.622;7.046;2023-06-26T02:49:34;11.00;;;10.30;;
5117;SDS011;2578;51.622;7.046;2023-06-26T02:52:00;11.47;;;10.77;;
5117;SDS011;2578;51.622;7.046;2023-06-26T02:54:26;11.20;;;10.50;;
5117;SDS011;2578;51.622;7.046;2023-06-26T02:56:52;11.33;;;10.63;;
5117;SDS011;2578;51.622;7.046;2023-06-26T02:59:17;12.00;;;11.20;;
5117;SDS011;2578;51.622;7.046;2023-06-26T03:01:43;12.73;;;11.93;;
5117;SDS011;2578;51.622;7.046;2023-06-26T03:04:09;13.43;;;12.53;;
5117;SDS011;2578;51.622;7.046;2023-06-26T03:06:35;13.27;;;12.47;;
5117;SDS011;2578;51.622;7.046;2023-06-26T03:09:01;13.90;;;13.00;;
5117;SDS011;2578;51.622;7.046;2023-06-26T03:11:27;13.40;;;12.60;;
5117;SDS011;2578;51.622;7.046;2023-06-26T03:13:53;13.90;;;13.00;;
5117;SDS011;2578;51.622;7.046;2023-06-26T03:16:19;14.20;;;13.30;;
5117;SDS011;2578;51.622;7.046;2023-06-26T03:18:45;16.23;;;15.00;;
5117;SDS011;2578;51.622;7.046;2023-06-26T03:21:10;14.90;;;13.90;;
5117;SDS011;2578;51.622;7.046;2023-06-26T03:23:36;14.10;;;13.20;;
5117;SDS011;2578;51.622;7.046;2023-06-26T03:26:04;14.10;;;13.20;;
5117;SDS011;2578;51.622;7.046;2023-06-26T03:28:30;13.30;;;12.50;;
5117;SDS011;2578;51.622;7.046;2023-06-26T03:30:56;12.67;;;11.87;;
5117;SDS011;2578;51.622;7.046;2023-06-26T03:33:22;13.40;;;12.50;;
5117;SDS011;2578;51.622;7.046;2023-06-26T03:35:48;11.80;;;11.10;;
5117;SDS011;2578;51.622;7.046;2023-06-26T03:38:14;12.63;;;11.83;;
5117;SDS011;2578;51.622;7.046;2023-06-26T03:40:39;14.77;;;13.63;;
5117;SDS011;2578;51.622;7.046;2023-06-26T03:43:05;13.40;;;12.60;;
5117;SDS011;2578;51.622;7.046;2023-06-26T03:45:31;12.30;;;11.27;;
5117;SDS011;2578;51.622;7.046;2023-06-26T03:47:57;13.37;;;12.30;;
5117;SDS011;2578;51.622;7.046;2023-06-26T03:50:22;12.40;;;11.30;;
5117;SDS011;2578;51.622;7.046;2023-06-26T03:52:48;10.60;;;9.80;;
5117;SDS011;2578;51.622;7.046;2023-06-26T03:55:15;10.03;;;9.43;;
5117;SDS011;2578;51.622;7.046;2023-06-26T03:57:41;11.83;;;11.00;;
5117;SDS011;2578;51.622;7.046;2023-06-26T04:00:07;9.00;;;8.40;;
5117;SDS011;2578;51.622;7.046;2023-06-26T04:02:34;12.03;;;11.17;;
5117;SDS011;2578;51.622;7.046;2023-06-26T04:05:02;11.70;;;10.80;;
5117;SDS011;2578;51.622;7.046;2023-06-26T04:07:29;10.00;;;9.30;;
5117;SDS011;2578;51.622;7.046;2023-06-26T04:09:56;9.63;;;8.93;;
5117;SDS011;2578;51.622;7.046;2023-06-26T04:12:22;8.57;;;7.97;;
5117;SDS011;2578;51.622;7.046;2023-06-26T04:14:47;9.33;;;8.40;;
5117;SDS011;2578;51.622;7.046;2023-06-26T04:17:13;9.33;;;8.43;;
5117;SDS011;2578;51.622;7.046;2023-06-26T04:19:39;7.43;;;6.83;;
5117;SDS011;2578;51.622;7.046;2023-06-26T04:22:04;9.67;;;8.90;;
5117;SDS011;2578;51.622;7.046;2023-06-26T04:24:30;7.83;;;7.23;;
5117;SDS011;2578;51.622;7.046;2023-06-26T04:26:56;9.50;;;8.53;;
5117;SDS011;2578;51.622;7.046;2023-06-26T04:29:22;10.90;;;7.77;;
5117;SDS011;2578;51.622;7.046;2023-06-26T04:31:52;7.87;;;7.13;;
5117;SDS011;2578;51.622;7.046;2023-06-26T04:34:22;6.60;;;6.10;;
5117;SDS011;2578;51.622;7.046;2023-06-26T04:36:51;8.73;;;7.83;;
5117;SDS011;2578;51.622;7.046;2023-06-26T04:39:17;19.50;;;11.53;;
5117;SDS011;2578;51.622;7.046;2023-06-26T04:41:45;7.70;;;7.10;;
5117;SDS011;2578;51.622;7.046;2023-06-26T04:44:11;7.63;;;7.03;;
5117;SDS011;2578;51.622;7.046;2023-06-26T04:46:37;10.07;;;8.30;;
5117;SDS011;2578;51.622;7.046;2023-06-26T04:49:06;7.90;;;7.10;;
5117;SDS011;2578;51.622;7.046;2023-06-26T04:51:35;9.80;;;8.80;;
5117;SDS011;2578;51.622;7.046;2023-06-26T04:54:08;6.57;;;6.00;;
5117;SDS011;2578;51.622;7.046;2023-06-26T04:56:35;6.10;;;5.60;;
5117;SDS011;2578;51.622;7.046;2023-06-26T04:59:01;7.53;;;6.93;;
5117;SDS011;2578;51.622;7.046;2023-06-26T05:01:28;9.83;;;8.80;;
5117;SDS011;2578;51.622;7.046;2023-06-26T05:04:00;10.20;;;7.60;;
5117;SDS011;2578;51.622;7.046;2023-06-26T05:06:29;6.20;;;5.70;;
5117;SDS011;2578;51.622;7.046;2023-06-26T05:08:54;17.73;;;7.40;;
5117;SDS011;2578;51.622;7.046;2023-06-26T05:11:20;8.00;;;7.30;;
5117;SDS011;2578;51.622;7.046;2023-06-26T05:13:46;9.80;;;8.57;;
5117;SDS011;2578;51.622;7.046;2023-06-26T05:16:11;8.40;;;7.53;;
5117;SDS011;2578;51.622;7.046;2023-06-26T05:18:37;8.10;;;7.50;;
5117;SDS011;2578;51.622;7.046;2023-06-26T05:21:03;9.03;;;8.20;;
5117;SDS011;2578;51.622;7.046;2023-06-26T05:23:32;10.17;;;9.17;;
5117;SDS011;2578;51.622;7.046;2023-06-26T05:25:59;9.60;;;8.90;;
5117;SDS011;2578;51.622;7.046;2023-06-26T05:28:25;8.57;;;7.80;;
5117;SDS011;2578;51.622;7.046;2023-06-26T05:30:52;9.13;;;8.43;;
5117;SDS011;2578;51.622;7.046;2023-06-26T05:33:20;10.20;;;9.40;;
5117;SDS011;2578;51.622;7.046;2023-06-26T05:35:48;12.60;;;11.60;;
5117;SDS011;2578;51.622;7.046;2023-06-26T05:38:17;10.40;;;9.70;;
5117;SDS011;2578;51.622;7.046;2023-06-26T05:40:43;12.80;;;11.90;;
5117;SDS011;2578;51.622;7.046;2023-06-26T05:43:09;12.10;;;11.20;;
5117;SDS011;2578;51.622;7.046;2023-06-26T05:45:35;19.50;;;11.37;;
5117;SDS011;2578;51.622;7.046;2023-06-26T05:48:00;10.03;;;9.33;;
5117;SDS011;2578;51.622;7.046;2023-06-26T05:50:27;12.40;;;11.10;;
5117;SDS011;2578;51.622;7.046;2023-06-26T05:52:53;11.93;;;10.87;;
5117;SDS011;2578;51.622;7.046;2023-06-26T05:55:19;9.50;;;8.90;;
5117;SDS011;2578;51.622;7.046;2023-06-26T05:57:46;12.37;;;9.73;;
5117;SDS011;2578;51.622;7.046;2023-06-26T06:00:12;10.23;;;9.33;;
5117;SDS011;2578;51.622;7.046;2023-06-26T06:02:39;8.60;;;8.00;;
5117;SDS011;2578;51.622;7.046;2023-06-26T06:05:06;9.63;;;8.90;;
5117;SDS011;2578;51.622;7.046;2023-06-26T06:07:32;9.73;;;9.10;;
5117;SDS011;2578;51.622;7.046;2023-06-26T06:09:59;10.10;;;9.40;;
5117;SDS011;2578;51.622;7.046;2023-06-26T06:12:24;10.90;;;10.20;;
5117;SDS011;2578;51.622;7.046;2023-06-26T06:14:53;11.37;;;10.30;;
5117;SDS011;2578;51.622;7.046;2023-06-26T06:17:19;11.80;;;10.77;;
5117;SDS011;2578;51.622;7.046;2023-06-26T06:19:45;12.20;;;11.20;;
5117;SDS011;2578;51.622;7.046;2023-06-26T06:22:11;21.23;;;12.40;;
5117;SDS011;2578;51.622;7.046;2023-06-26T06:24:37;11.70;;;10.50;;
5117;SDS011;2578;51.622;7.046;2023-06-26T06:27:03;14.63;;;10.47;;
5117;SDS011;2578;51.622;7.046;2023-06-26T06:29:28;7.30;;;6.80;;
5117;SDS011;2578;51.622;7.046;2023-06-26T06:31:54;10.10;;;9.10;;
5117;SDS011;2578;51.622;7.046;2023-06-26T06:34:19;8.80;;;8.00;;
5117;SDS011;2578;51.622;7.046;2023-06-26T06:36:45;11.40;;;9.23;;
5117;SDS011;2578;51.622;7.046;2023-06-26T06:39:11;9.17;;;8.37;;
5117;SDS011;2578;51.622;7.046;2023-06-26T06:41:37;8.93;;;8.13;;
5117;SDS011;2578;51.622;7.046;2023-06-26T06:44:03;9.57;;;8.87;;
5117;SDS011;2578;51.622;7.046;2023-06-26T06:46:29;9.80;;;8.90;;
5117;SDS011;2578;51.622;7.046;2023-06-26T06:48:55;9.10;;;8.50;;
5117;SDS011;2578;51.622;7.046;2023-06-26T06:51:21;12.60;;;11.40;;
5117;SDS011;2578;51.622;7.046;2023-06-26T06:53:47;11.00;;;9.23;;
5117;SDS011;2578;51.622;7.046;2023-06-26T06:56:12;9.67;;;8.87;;
5117;SDS011;2578;51.622;7.046;2023-06-26T06:58:38;12.53;;;11.20;;
5117;SDS011;2578;51.622;7.046;2023-06-26T07:01:07;13.57;;;11.83;;
5117;SDS011;2578;51.622;7.046;2023-06-26T07:03:37;17.17;;;11.00;;
5117;SDS011;2578;51.622;7.046;2023-06-26T07:06:04;9.40;;;8.60;;
5117;SDS011;2578;51.622;7.046;2023-06-26T07:08:29;8.20;;;7.60;;
5117;SDS011;2578;51.622;7.046;2023-06-26T07:10:55;8.90;;;8.20;;
5117;SDS011;2578;51.622;7.046;2023-06-26T07:13:24;11.60;;;10.50;;
5117;SDS011;2578;51.622;7.046;2023-06-26T07:15:50;17.30;;;10.13;;
5117;SDS011;2578;51.622;7.046;2023-06-26T07:18:16;17.67;;;12.50;;
5117;SDS011;2578;51.622;7.046;2023-06-26T07:20:42;13.10;;;10.50;;
5117;SDS011;2578;51.622;7.046;2023-06-26T07:23:08;13.10;;;9.70;;
5117;SDS011;2578;51.622;7.046;2023-06-26T07:25:34;10.60;;;9.70;;
5117;SDS011;2578;51.622;7.046;2023-06-26T07:28:00;10.10;;;9.30;;
5117;SDS011;2578;51.622;7.046;2023-06-26T07:30:26;13.97;;;10.33;;
5117;SDS011;2578;51.622;7.046;2023-06-26T07:32:51;14.73;;;11.70;;
5117;SDS011;2578;51.622;7.046;2023-06-26T07:35:17;12.03;;;11.03;;
5117;SDS011;2578;51.622;7.046;2023-06-26T07:37:42;14.30;;;11.00;;
5117;SDS011;2578;51.622;7.046;2023-06-26T07:40:09;13.03;;;11.70;;
5117;SDS011;2578;51.622;7.046;2023-06-26T07:42:35;10.50;;;9.70;;
5117;SDS011;2578;51.622;7.046;2023-06-26T07:45:01;9.97;;;9.07;;
5117;SDS011;2578;51.622;7.046;2023-06-26T07:47:30;10.47;;;9.57;;
5117;SDS011;2578;51.622;7.046;2023-06-26T07:49:55;11.07;;;10.07;;
5117;SDS011;2578;51.622;7.046;2023-06-26T07:52:21;10.83;;;10.13;;
5117;SDS011;2578;51.622;7.046;2023-06-26T07:54:47;15.07;;;13.23;;
5117;SDS011;2578;51.622;7.046;2023-06-26T07:57:12;12.33;;;11.23;;
5117;SDS011;2578;51.622;7.046;2023-06-26T07:59:38;20.80;;;14.20;;
5117;SDS011;2578;51.622;7.046;2023-06-26T08:02:04;14.87;;;13.23;;
5117;SDS011;2578;51.622;7.046;2023-06-26T08:04:33;12.87;;;11.67;;
5117;SDS011;2578;51.622;7.046;2023-06-26T08:06:59;13.27;;;12.27;;
5117;SDS011;2578;51.622;7.046;2023-06-26T08:09:27;14.17;;;12.87;;
5117;SDS011;2578;51.622;7.046;2023-06-26T08:11:54;13.57;;;12.30;;
5117;SDS011;2578;51.622;7.046;2023-06-26T08:14:20;12.27;;;11.07;;
5117;SDS011;2578;51.622;7.046;2023-06-26T08:16:48;15.37;;;13.93;;
5117;SDS011;2578;51.622;7.046;2023-06-26T08:19:14;21.90;;;16.63;;
5117;SDS011;2578;51.622;7.046;2023-06-26T08:21:40;15.47;;;14.17;;
5117;SDS011;2578;51.622;7.046;2023-06-26T08:24:06;15.87;;;14.37;;
5117;SDS011;2578;51.622;7.046;2023-06-26T08:26:33;13.20;;;12.20;;
5117;SDS011;2578;51.622;7.046;2023-06-26T08:28:59;12.83;;;11.83;;
5117;SDS011;2578;51.622;7.046;2023-06-26T08:31:25;13.20;;;12.00;;
5117;SDS011;2578;51.622;7.046;2023-06-26T08:33:51;12.47;;;11.40;;
5117;SDS011;2578;51.622;7.046;2023-06-26T08:36:17;12.80;;;11.67;;
5117;SDS011;2578;51.622;7.046;2023-06-26T08:38:43;11.47;;;10.37;;
5117;SDS011;2578;51.622;7.046;2023-06-26T08:41:08;14.67;;;13.17;;
5117;SDS011;2578;51.622;7.046;2023-06-26T08:43:34;14.50;;;13.20;;
5117;SDS011;2578;51.622;7.046;2023-06-26T08:46:01;15.50;;;13.20;;
5117;SDS011;2578;51.622;7.046;2023-06-26T08:48:28;16.27;;;14.53;;
5117;SDS011;2578;51.622;7.046;2023-06-26T08:51:00;13.33;;;12.00;;
5117;SDS011;2578;51.622;7.046;2023-06-26T08:53:36;13.47;;;12.13;;
5117;SDS011;2578;51.622;7.046;2023-06-26T08:56:06;12.30;;;11.20;;
5117;SDS011;2578;51.622;7.046;2023-06-26T08:58:33;18.40;;;13.10;;
5117;SDS011;2578;51.622;7.046;2023-06-26T09:01:06;15.53;;;11.47;;
5117;SDS011;2578;51.622;7.046;2023-06-26T09:03:32;14.60;;;12.90;;
5117;SDS011;2578;51.622;7.046;2023-06-26T09:05:59;22.07;;;12.03;;
5117;SDS011;2578;51.622;7.046;2023-06-26T09:08:25;15.87;;;14.07;;
5117;SDS011;2578;51.622;7.046;2023-06-26T09:10:51;14.50;;;13.10;;
5117;SDS011;2578;51.622;7.046;2023-06-26T09:13:18;16.07;;;14.63;;
5117;SDS011;2578;51.622;7.046;2023-06-26T09:15:44;16.27;;;14.67;;
5117;SDS011;2578;51.622;7.046;2023-06-26T09:18:10;15.90;;;14.20;;
5117;SDS011;2578;51.622;7.046;2023-06-26T09:20:36;16.87;;;15.40;;
5117;SDS011;2578;51.622;7.046;2023-06-26T09:23:02;15.33;;;14.13;;
5117;SDS011;2578;51.622;7.046;2023-06-26T09:25:29;15.27;;;13.80;;
5117;SDS011;2578;51.622;7.046;2023-06-26T09:27:55;14.00;;;13.10;;
5117;SDS011;2578;51.622;7.046;2023-06-26T09:30:24;14.90;;;13.80;;
5117;SDS011;2578;51.622;7.046;2023-06-26T09:32:56;17.10;;;15.70;;
5117;SDS011;2578;51.622;7.046;2023-06-26T09:35:22;16.17;;;14.60;;
5117;SDS011;2578;51.622;7.046;2023-06-26T09:37:51;18.00;;;16.47;;
5117;SDS011;2578;51.622;7.046;2023-06-26T09:40:17;18.83;;;17.20;;
5117;SDS011;2578;51.622;7.046;2023-06-26T09:42:43;17.97;;;16.57;;
5117;SDS011;2578;51.622;7.046;2023-06-26T09:45:13;21.23;;;16.30;;
5117;SDS011;2578;51.622;7.046;2023-06-26T09:47:44;21.40;;;20.10;;
5117;SDS011;2578;51.622;7.046;2023-06-26T09:50:20;15.23;;;14.23;;
5117;SDS011;2578;51.622;7.046;2023-06-26T09:52:47;18.70;;;16.83;;
5117;SDS011;2578;51.622;7.046;2023-06-26T09:55:12;19.27;;;17.77;;
5117;SDS011;2578;51.622;7.046;2023-06-26T09:57:38;19.63;;;18.13;;
5117;SDS011;2578;51.622;7.046;2023-06-26T10:00:07;19.07;;;17.53;;
5117;SDS011;2578;51.622;7.046;2023-06-26T10:02:34;19.27;;;17.67;;
5117;SDS011;2578;51.622;7.046;2023-06-26T10:05:00;18.33;;;16.93;;
5117;SDS011;2578;51.622;7.046;2023-06-26T10:07:28;18.30;;;16.97;;
5117;SDS011;2578;51.622;7.046;2023-06-26T10:09:58;19.43;;;17.90;;
5117;SDS011;2578;51.622;7.046;2023-06-26T10:12:27;19.60;;;18.10;;
5117;SDS011;2578;51.622;7.046;2023-06-26T10:14:55;20.40;;;18.77;;
5117;SDS011;2578;51.622;7.046;2023-06-26T10:17:30;19.57;;;18.10;;
5117;SDS011;2578;51.622;7.046;2023-06-26T10:20:00;18.80;;;17.40;;
5117;SDS011;2578;51.622;7.046;2023-06-26T10:22:29;18.90;;;17.50;;
5117;SDS011;2578;51.622;7.046;2023-06-26T10:25:00;17.87;;;16.37;;
5117;SDS011;2578;51.622;7.046;2023-06-26T10:27:30;18.10;;;16.83;;
5117;SDS011;2578;51.622;7.046;2023-06-26T10:30:03;22.47;;;20.37;;
5117;SDS011;2578;51.622;7.046;2023-06-26T10:32:34;19.53;;;18.13;;
5117;SDS011;2578;51.622;7.046;2023-06-26T10:35:00;22.03;;;20.07;;
5117;SDS011;2578;51.622;7.046;2023-06-26T10:37:40;20.30;;;18.80;;
5117;SDS011;2578;51.622;7.046;2023-06-26T10:40:11;19.57;;;18.17;;
5117;SDS011;2578;51.622;7.046;2023-06-26T10:42:45;22.13;;;20.33;;
5117;SDS011;2578;51.622;7.046;2023-06-26T10:45:15;18.27;;;17.00;;
5117;SDS011;2578;51.622;7.046;2023-06-26T10:47:42;20.23;;;18.50;;
5117;SDS011;2578;51.622;7.046;2023-06-26T10:52:43;20.13;;;18.23;;
5117;SDS011;2578;51.622;7.046;2023-06-26T10:55:08;20.43;;;18.80;;
5117;SDS011;2578;51.622;7.046;2023-06-26T10:57:35;23.83;;;18.17;;
5117;SDS011;2578;51.622;7.046;2023-06-26T11:00:08;20.27;;;17.87;;
5117;SDS011;2578;51.622;7.046;2023-06-26T11:03:14;18.70;;;17.10;;
5117;SDS011;2578;51.622;7.046;2023-06-26T11:06:14;19.20;;;17.50;;
5117;SDS011;2578;51.622;7.046;2023-06-26T11:14:23;21.60;;;20.00;;
5117;SDS011;2578;51.622;7.046;2023-06-26T11:16:51;19.30;;;17.90;;
5117;SDS011;2578;51.622;7.046;2023-06-26T11:19:18;18.60;;;17.40;;
5117;SDS011;2578;51.622;7.046;2023-06-26T11:21:44;22.27;;;20.43;;
5117;SDS011;2578;51.622;7.046;2023-06-26T11:24:11;21.40;;;19.80;;
5117;SDS011;2578;51.622;7.046;2023-06-26T11:26:38;21.17;;;19.57;;
5117;SDS011;2578;51.622;7.046;2023-06-26T11:29:04;21.53;;;19.80;;
5117;SDS011;2578;51.622;7.046;2023-06-26T11:31:33;20.90;;;19.27;;
5117;SDS011;2578;51.622;7.046;2023-06-26T11:34:03;22.43;;;20.53;;
5117;SDS011;2578;51.622;7.046;2023-06-26T11:36:35;21.13;;;19.53;;
5117;SDS011;2578;51.622;7.046;2023-06-26T11:39:02;19.70;;;18.20;;
5117;SDS011;2578;51.622;7.046;2023-06-26T11:41:34;19.53;;;17.83;;
5117;SDS011;2578;51.622;7.046;2023-06-26T11:44:01;20.73;;;19.13;;
5117;SDS011;2578;51.622;7.046;2023-06-26T11:46:28;20.40;;;18.90;;
5117;SDS011;2578;51.622;7.046;2023-06-26T11:48:54;21.50;;;19.80;;
5117;SDS011;2578;51.622;7.046;2023-06-26T11:51:19;22.70;;;20.80;;
5117;SDS011;2578;51.622;7.046;2023-06-26T11:53:45;22.47;;;20.50;;
5117;SDS011;2578;51.622;7.046;2023-06-26T11:56:15;22.60;;;20.80;;
5117;SDS011;2578;51.622;7.046;2023-06-26T12:01:31;23.77;;;21.87;;
5117;SDS011;2578;51.622;7.046;2023-06-26T12:04:00;23.30;;;21.60;;
5117;SDS011;2578;51.622;7.046;2023-06-26T12:06:28;24.10;;;22.30;;
5117;SDS011;2578;51.622;7.046;2023-06-26T12:08:55;25.00;;;23.00;;
5117;SDS011;2578;51.622;7.046;2023-06-26T12:11:24;24.87;;;22.87;;
5117;SDS011;2578;51.622;7.046;2023-06-26T12:13:50;23.30;;;21.50;;
5117;SDS011;2578;51.622;7.046;2023-06-26T12:16:16;23.20;;;21.40;;
5117;SDS011;2578;51.622;7.046;2023-06-26T12:18:42;23.40;;;21.30;;
5117;SDS011;2578;51.622;7.046;2023-06-26T12:21:08;23.87;;;21.90;;
5117;SDS011;2578;51.622;7.046;2023-06-26T12:23:57;24.90;;;22.70;;
5117;SDS011;2578;51.622;7.046;2023-06-26T12:26:25;23.20;;;21.30;;
5117;SDS011;2578;51.622;7.046;2023-06-26T12:28:52;23.90;;;22.00;;
5117;SDS011;2578;51.622;7.046;2023-06-26T12:31:20;24.93;;;23.03;;
5117;SDS011;2578;51.622;7.046;2023-06-26T12:33:46;24.47;;;22.40;;
5117;SDS011;2578;51.622;7.046;2023-06-26T12:36:12;23.13;;;21.30;;
5117;SDS011;2578;51.622;7.046;2023-06-26T12:38:39;23.80;;;21.93;;
5117;SDS011;2578;51.622;7.046;2023-06-26T12:41:11;23.73;;;21.80;;
5117;SDS011;2578;51.622;7.046;2023-06-26T12:43:45;24.00;;;22.00;;
5117;SDS011;2578;51.622;7.046;2023-06-26T12:46:11;23.23;;;21.43;;
5117;SDS011;2578;51.622;7.046;2023-06-26T12:48:45;24.53;;;22.00;;
5117;SDS011;2578;51.622;7.046;2023-06-26T12:51:14;23.90;;;21.80;;
5117;SDS011;2578;51.622;7.046;2023-06-26T12:53:42;24.77;;;22.30;;
5117;SDS011;2578;51.622;7.046;2023-06-26T12:56:09;23.70;;;21.80;;
5117;SDS011;2578;51.622;7.046;2023-06-26T12:58:36;23.90;;;22.00;;
5117;SDS011;2578;51.622;7.046;2023-06-26T13:01:06;24.20;;;22.10;;
5117;SDS011;2578;51.622;7.046;2023-06-26T13:03:39;23.70;;;21.60;;
5117;SDS011;2578;51.622;7.046;2023-06-26T13:06:10;23.07;;;21.27;;
5117;SDS011;2578;51.622;7.046;2023-06-26T13:08:35;24.73;;;22.67;;
5117;SDS011;2578;51.622;7.046;2023-06-26T13:11:02;45.10;;;22.07;;
5117;SDS011;2578;51.622;7.046;2023-06-26T13:13:28;21.80;;;20.10;;
5117;SDS011;2578;51.622;7.046;2023-06-26T13:15:54;21.93;;;20.27;;
5117;SDS011;2578;51.622;7.046;2023-06-26T13:18:19;22.40;;;20.60;;
5117;SDS011;2578;51.622;7.046;2023-06-26T13:20:45;22.73;;;20.60;;
5117;SDS011;2578;51.622;7.046;2023-06-26T13:23:11;22.73;;;20.93;;
5117;SDS011;2578;51.622;7.046;2023-06-26T13:25:37;22.63;;;20.83;;
5117;SDS011;2578;51.622;7.046;2023-06-26T13:28:02;22.43;;;20.63;;
5117;SDS011;2578;51.622;7.046;2023-06-26T13:30:31;22.90;;;21.20;;
5117;SDS011;2578;51.622;7.046;2023-06-26T13:32:57;23.07;;;20.80;;
5117;SDS011;2578;51.622;7.046;2023-06-26T13:35:22;23.17;;;21.37;;
5117;SDS011;2578;51.622;7.046;2023-06-26T13:37:48;22.83;;;21.03;;
5117;SDS011;2578;51.622;7.046;2023-06-26T13:40:14;23.13;;;21.30;;
5117;SDS011;2578;51.622;7.046;2023-06-26T13:42:42;23.30;;;21.60;;
5117;SDS011;2578;51.622;7.046;2023-06-26T13:45:09;22.93;;;21.13;;
5117;SDS011;2578;51.622;7.046;2023-06-26T13:47:37;22.80;;;21.00;;
5117;SDS011;2578;51.622;7.046;2023-06-26T13:50:06;22.80;;;21.00;;
5117;SDS011;2578;51.622;7.046;2023-06-26T13:52:35;24.03;;;22.03;;
5117;SDS011;2578;51.622;7.046;2023-06-26T13:55:07;23.33;;;21.40;;
5117;SDS011;2578;51.622;7.046;2023-06-26T13:57:37;23.27;;;21.43;;
5117;SDS011;2578;51.622;7.046;2023-06-26T14:00:09;23.83;;;21.83;;
5117;SDS011;2578;51.622;7.046;2023-06-26T14:02:37;22.73;;;20.70;;
5117;SDS011;2578;51.622;7.046;2023-06-26T14:05:02;22.00;;;20.10;;
5117;SDS011;2578;51.622;7.046;2023-06-26T14:07:29;24.70;;;22.47;;
5117;SDS011;2578;51.622;7.046;2023-06-26T14:09:56;23.50;;;21.60;;
5117;SDS011;2578;51.622;7.046;2023-06-26T14:12:21;22.63;;;20.93;;
5117;SDS011;2578;51.622;7.046;2023-06-26T14:14:48;22.93;;;21.13;;
5117;SDS011;2578;51.622;7.046;2023-06-26T14:17:15;22.77;;;20.87;;
5117;SDS011;2578;51.622;7.046;2023-06-26T14:19:40;36.53;;;23.17;;
5117;SDS011;2578;51.622;7.046;2023-06-26T14:22:06;22.87;;;20.87;;
5117;SDS011;2578;51.622;7.046;2023-06-26T14:24:32;23.83;;;21.80;;
5117;SDS011;2578;51.622;7.046;2023-06-26T14:27:00;23.63;;;21.63;;
5117;SDS011;2578;51.622;7.046;2023-06-26T14:29:26;21.83;;;20.23;;
5117;SDS011;2578;51.622;7.046;2023-06-26T14:31:52;21.90;;;20.30;;
5117;SDS011;2578;51.622;7.046;2023-06-26T14:34:17;22.03;;;20.33;;
5117;SDS011;2578;51.622;7.046;2023-06-26T14:36:43;23.63;;;21.53;;
5117;SDS011;2578;51.622;7.046;2023-06-26T14:39:08;23.65;;;21.65;;
5117;SDS011;2578;51.622;7.046;2023-06-26T14:41:35;23.73;;;21.83;;
5117;SDS011;2578;51.622;7.046;2023-06-26T14:44:00;22.50;;;20.90;;
5117;SDS011;2578;51.622;7.046;2023-06-26T14:46:26;22.97;;;21.17;;
5117;SDS011;2578;51.622;7.046;2023-06-26T14:48:52;23.00;;;21.20;;
5117;SDS011;2578;51.622;7.046;2023-06-26T14:51:18;24.50;;;22.20;;
5117;SDS011;2578;51.622;7.046;2023-06-26T14:53:43;23.43;;;21.43;;
5117;SDS011;2578;51.622;7.046;2023-06-26T14:56:09;22.40;;;20.67;;
5117;SDS011;2578;51.622;7.046;2023-06-26T14:58:34;23.43;;;21.37;;
5117;SDS011;2578;51.622;7.046;2023-06-26T15:01:00;23.70;;;21.90;;
5117;SDS011;2578;51.622;7.046;2023-06-26T15:03:26;23.57;;;21.67;;
5117;SDS011;2578;51.622;7.046;2023-06-26T15:05:51;23.13;;;21.33;;
5117;SDS011;2578;51.622;7.046;2023-06-26T15:08:17;24.40;;;22.43;;
5117;SDS011;2578;51.622;7.046;2023-06-26T15:10:42;23.70;;;21.70;;
5117;SDS011;2578;51.622;7.046;2023-06-26T15:13:08;23.10;;;21.30;;
5117;SDS011;2578;51.622;7.046;2023-06-26T15:15:34;22.30;;;20.70;;